createdAt,value
2022-11-05T00:19:06.217Z,7.45
2022-11-05T00:37:50.192Z,7.33
2022-11-05T00:58:27.235Z,7.25
2022-11-05T01:19:02.073Z,7.2
2022-11-05T01:38:31.752Z,7.02
2022-11-05T01:58:54.924Z,6.94
2022-11-05T02:38:47.748Z,6.94
2022-11-05T02:57:59.971Z,6.97
2022-11-05T03:18:36.980Z,7
2022-11-05T03:38:28.602Z,6.91
2022-11-05T03:58:38.557Z,6.91
2022-11-05T04:18:40.410Z,6.96
2022-11-05T04:38:24.228Z,6.95
2022-11-05T04:58:52.063Z,6.92
2022-11-05T05:19:05.027Z,6.89
2022-11-05T05:38:44.217Z,6.73
2022-11-05T05:59:05.784Z,6.57
2022-11-05T06:17:51.338Z,6.55
2022-11-05T06:39:01.776Z,6.52
2022-11-05T06:57:53.562Z,6.58
2022-11-05T07:18:25.229Z,6.61
2022-11-05T07:38:39.753Z,6.95
2022-11-05T07:58:41.731Z,7.35
2022-11-05T08:19:19.749Z,7.66
2022-11-05T08:39:20.477Z,8.15
2022-11-05T08:58:46.618Z,8.37
2022-11-05T09:18:30.106Z,8.83
2022-11-05T09:38:31.270Z,9.52
2022-11-05T09:59:15.345Z,9.82
2022-11-05T10:18:24.603Z,10.36
2022-11-05T10:37:40.952Z,10.59
2022-11-05T10:58:54.140Z,10.08
2022-11-05T11:18:40.370Z,10.02
2022-11-05T11:38:56.357Z,12.59
2022-11-05T11:59:09.969Z,13.4
2022-11-05T12:18:31.159Z,11.9
2022-11-05T12:39:05.646Z,10.99
2022-11-05T12:58:15.311Z,12.33
2022-11-05T13:18:27.780Z,12.02
2022-11-05T13:39:05.706Z,13.31
2022-11-05T13:59:06.316Z,13.26
2022-11-05T14:19:20.253Z,12.79
2022-11-05T14:38:22.253Z,11.89
2022-11-05T14:58:43.108Z,11.37
2022-11-05T15:19:11.251Z,10.94
2022-11-05T15:39:28.257Z,10.16
2022-11-05T15:59:24.386Z,9
2022-11-05T16:17:33.805Z,8.15
2022-11-05T16:38:18.110Z,7.68
2022-11-05T16:57:44.326Z,7.57
2022-11-05T17:19:04.924Z,7.21
2022-11-05T17:38:07.650Z,6.98
2022-11-05T17:58:25.711Z,7.02
2022-11-05T18:19:49.321Z,6.89
2022-11-05T18:38:08.902Z,6.68
2022-11-05T18:59:22.297Z,6.46
2022-11-05T19:18:54.682Z,6.43
2022-11-05T19:38:44.959Z,6.41
2022-11-05T19:58:16.716Z,6.28
2022-11-05T20:19:08.394Z,6.06
2022-11-05T20:39:04.997Z,5.87
2022-11-05T20:57:53.935Z,5.64
2022-11-05T21:18:26.687Z,5.31
2022-11-05T21:38:28.430Z,5.03
2022-11-05T21:59:00.441Z,4.79
2022-11-05T22:18:41.797Z,4.54
2022-11-05T22:38:39.355Z,4.35
2022-11-05T22:58:40.048Z,4.19
2022-11-05T23:19:31.745Z,4.02
2022-11-05T23:58:13.862Z,3.95
